Metar Aviation Weather Data ENHD Haugesund

11°C Temp
9°C Dewpoint
88% Humidity
Temperature
71 KM/H
44 MPH
38 KTS
250°
West South
West

Wind Speed
Light Rain
Showers
Pressure 1007 (hPa) - 29.73 (in)
Visibility 2.7 (mi) - 4 (km)

Current Conditions
ENHD
Haugesund
Metar :ENHD 221950Z 25038G48KT 4300 RA FEW009 BKN018 11/09 Q1007
Mon 22nd October 21:50 pm

Haugesund
  Metar Aviation API Data Provided by https://www.checkwx.com/ PHP scripts by weather34.com ©2018